sensor_id;sensor_type;location;lat;lon;timestamp;temperature;humidity
12849;DHT22;6493;50.928;7.172;2022-08-03T00:00:56;19.70;45.40
12849;DHT22;6493;50.928;7.172;2022-08-03T00:06:00;19.60;45.50
12849;DHT22;6493;50.928;7.172;2022-08-03T00:11:07;19.60;45.60
12849;DHT22;6493;50.928;7.172;2022-08-03T00:16:11;19.50;45.70
12849;DHT22;6493;50.928;7.172;2022-08-03T00:21:15;19.40;45.80
12849;DHT22;6493;50.928;7.172;2022-08-03T00:26:20;19.30;45.90
12849;DHT22;6493;50.928;7.172;2022-08-03T00:31:24;19.30;46.00
12849;DHT22;6493;50.928;7.172;2022-08-03T00:36:47;19.10;46.00
12849;DHT22;6493;50.928;7.172;2022-08-03T00:41:52;19.00;46.10
12849;DHT22;6493;50.928;7.172;2022-08-03T00:46:56;19.00;46.30
12849;DHT22;6493;50.928;7.172;2022-08-03T00:52:01;18.90;46.30
12849;DHT22;6493;50.928;7.172;2022-08-03T00:57:12;18.90;46.50
12849;DHT22;6493;50.928;7.172;2022-08-03T01:02:16;18.80;46.60
12849;DHT22;6493;50.928;7.172;2022-08-03T01:07:26;18.70;46.50
12849;DHT22;6493;50.928;7.172;2022-08-03T01:12:40;18.70;46.90
12849;DHT22;6493;50.928;7.172;2022-08-03T01:17:50;18.60;46.80
12849;DHT22;6493;50.928;7.172;2022-08-03T01:23:27;18.60;47.00
12849;DHT22;6493;50.928;7.172;2022-08-03T01:29:07;18.50;47.40
12849;DHT22;6493;50.928;7.172;2022-08-03T01:34:15;18.40;47.50
12849;DHT22;6493;50.928;7.172;2022-08-03T01:39:20;18.40;47.10
12849;DHT22;6493;50.928;7.172;2022-08-03T01:44:25;18.30;47.10
12849;DHT22;6493;50.928;7.172;2022-08-03T01:49:37;18.30;47.20
12849;DHT22;6493;50.928;7.172;2022-08-03T01:54:44;18.20;47.40
12849;DHT22;6493;50.928;7.172;2022-08-03T01:59:49;18.10;47.40
12849;DHT22;6493;50.928;7.172;2022-08-03T02:04:56;18.10;47.40
12849;DHT22;6493;50.928;7.172;2022-08-03T02:10:03;18.10;48.20
12849;DHT22;6493;50.928;7.172;2022-08-03T02:15:08;18.00;47.60
12849;DHT22;6493;50.928;7.172;2022-08-03T02:20:17;17.90;47.60
12849;DHT22;6493;50.928;7.172;2022-08-03T02:25:22;17.90;47.80
12849;DHT22;6493;50.928;7.172;2022-08-03T02:30:30;17.70;47.60
12849;DHT22;6493;50.928;7.172;2022-08-03T02:35:38;17.70;47.90
12849;DHT22;6493;50.928;7.172;2022-08-03T02:40:44;17.70;48.00
12849;DHT22;6493;50.928;7.172;2022-08-03T02:45:49;17.60;48.00
12849;DHT22;6493;50.928;7.172;2022-08-03T02:50:57;17.50;48.00
12849;DHT22;6493;50.928;7.172;2022-08-03T02:56:02;17.50;48.30
12849;DHT22;6493;50.928;7.172;2022-08-03T03:01:06;17.50;48.20
12849;DHT22;6493;50.928;7.172;2022-08-03T03:06:12;17.40;48.20
12849;DHT22;6493;50.928;7.172;2022-08-03T03:11:18;17.40;48.40
12849;DHT22;6493;50.928;7.172;2022-08-03T03:16:22;17.30;48.40
12849;DHT22;6493;50.928;7.172;2022-08-03T03:21:30;17.20;48.30
12849;DHT22;6493;50.928;7.172;2022-08-03T03:26:34;17.10;48.40
12849;DHT22;6493;50.928;7.172;2022-08-03T03:31:43;17.10;48.50
12849;DHT22;6493;50.928;7.172;2022-08-03T03:36:49;17.00;48.60
12849;DHT22;6493;50.928;7.172;2022-08-03T03:41:53;16.90;48.70
12849;DHT22;6493;50.928;7.172;2022-08-03T03:46:57;16.90;48.70
12849;DHT22;6493;50.928;7.172;2022-08-03T03:52:02;16.90;48.90
12849;DHT22;6493;50.928;7.172;2022-08-03T03:57:06;16.80;48.90
12849;DHT22;6493;50.928;7.172;2022-08-03T04:02:14;16.70;48.90
12849;DHT22;6493;50.928;7.172;2022-08-03T04:07:22;16.70;49.00
12849;DHT22;6493;50.928;7.172;2022-08-03T04:12:44;16.60;49.30
12849;DHT22;6493;50.928;7.172;2022-08-03T04:17:53;16.50;49.30
12849;DHT22;6493;50.928;7.172;2022-08-03T04:23:00;16.50;49.50
12849;DHT22;6493;50.928;7.172;2022-08-03T04:28:15;16.50;49.60
12849;DHT22;6493;50.928;7.172;2022-08-03T04:33:33;16.50;49.70
12849;DHT22;6493;50.928;7.172;2022-08-03T04:38:46;16.50;50.10
12849;DHT22;6493;50.928;7.172;2022-08-03T04:43:56;16.70;50.70
12849;DHT22;6493;50.928;7.172;2022-08-03T04:49:00;16.90;50.50
12849;DHT22;6493;50.928;7.172;2022-08-03T04:54:06;17.10;50.60
12849;DHT22;6493;50.928;7.172;2022-08-03T04:59:14;17.40;50.90
12849;DHT22;6493;50.928;7.172;2022-08-03T05:04:19;17.70;51.80
12849;DHT22;6493;50.928;7.172;2022-08-03T05:09:24;18.10;52.00
12849;DHT22;6493;50.928;7.172;2022-08-03T05:14:47;18.70;52.70
12849;DHT22;6493;50.928;7.172;2022-08-03T05:19:51;19.40;52.40
12849;DHT22;6493;50.928;7.172;2022-08-03T05:24:56;20.00;51.80
12849;DHT22;6493;50.928;7.172;2022-08-03T05:30:00;20.40;51.60
12849;DHT22;6493;50.928;7.172;2022-08-03T05:35:25;20.80;51.60
12849;DHT22;6493;50.928;7.172;2022-08-03T05:40:51;21.20;50.80
12849;DHT22;6493;50.928;7.172;2022-08-03T05:45:58;21.40;50.20
12849;DHT22;6493;50.928;7.172;2022-08-03T05:51:14;21.50;49.80
12849;DHT22;6493;50.928;7.172;2022-08-03T05:56:22;21.60;49.50
12849;DHT22;6493;50.928;7.172;2022-08-03T06:01:26;21.70;49.60
12849;DHT22;6493;50.928;7.172;2022-08-03T06:06:31;21.90;50.30
12849;DHT22;6493;50.928;7.172;2022-08-03T06:11:36;22.20;49.60
12849;DHT22;6493;50.928;7.172;2022-08-03T06:16:40;22.50;49.80
12849;DHT22;6493;50.928;7.172;2022-08-03T06:21:43;22.70;49.20
12849;DHT22;6493;50.928;7.172;2022-08-03T06:26:49;22.60;48.70
12849;DHT22;6493;50.928;7.172;2022-08-03T06:31:53;22.70;48.60
12849;DHT22;6493;50.928;7.172;2022-08-03T06:36:56;22.50;47.70
12849;DHT22;6493;50.928;7.172;2022-08-03T06:42:05;22.30;47.50
12849;DHT22;6493;50.928;7.172;2022-08-03T06:47:11;22.10;47.80
12849;DHT22;6493;50.928;7.172;2022-08-03T06:52:14;22.20;48.20
12849;DHT22;6493;50.928;7.172;2022-08-03T06:57:39;22.30;47.90
12849;DHT22;6493;50.928;7.172;2022-08-03T07:02:43;22.20;47.50
12849;DHT22;6493;50.928;7.172;2022-08-03T07:07:48;22.30;48.20
12849;DHT22;6493;50.928;7.172;2022-08-03T07:12:54;22.60;48.60
12849;DHT22;6493;50.928;7.172;2022-08-03T07:17:58;22.90;48.20
12849;DHT22;6493;50.928;7.172;2022-08-03T07:23:02;23.20;48.00
12849;DHT22;6493;50.928;7.172;2022-08-03T07:28:07;23.40;47.90
12849;DHT22;6493;50.928;7.172;2022-08-03T07:33:11;23.60;47.20
12849;DHT22;6493;50.928;7.172;2022-08-03T07:38:15;23.60;47.20
12849;DHT22;6493;50.928;7.172;2022-08-03T07:43:23;23.80;47.50
12849;DHT22;6493;50.928;7.172;2022-08-03T07:48:27;24.10;47.50
12849;DHT22;6493;50.928;7.172;2022-08-03T07:53:31;24.50;47.80
12849;DHT22;6493;50.928;7.172;2022-08-03T07:58:40;24.80;47.40
12849;DHT22;6493;50.928;7.172;2022-08-03T08:03:44;24.90;46.70
12849;DHT22;6493;50.928;7.172;2022-08-03T08:19:40;25.00;46.30
12849;DHT22;6493;50.928;7.172;2022-08-03T08:24:53;25.20;46.00
12849;DHT22;6493;50.928;7.172;2022-08-03T08:29:56;25.20;45.90
12849;DHT22;6493;50.928;7.172;2022-08-03T08:35:13;25.30;46.00
12849;DHT22;6493;50.928;7.172;2022-08-03T08:40:20;25.40;46.00
12849;DHT22;6493;50.928;7.172;2022-08-03T08:45:24;25.60;45.50
12849;DHT22;6493;50.928;7.172;2022-08-03T08:50:30;25.70;45.80
12849;DHT22;6493;50.928;7.172;2022-08-03T08:55:34;25.80;45.30
12849;DHT22;6493;50.928;7.172;2022-08-03T09:00:58;26.10;45.50
12849;DHT22;6493;50.928;7.172;2022-08-03T09:07:37;26.30;45.40
12849;DHT22;6493;50.928;7.172;2022-08-03T09:14:13;26.60;44.50
12849;DHT22;6493;50.928;7.172;2022-08-03T09:26:36;27.10;44.00
12849;DHT22;6493;50.928;7.172;2022-08-03T09:31:41;27.30;43.70
12849;DHT22;6493;50.928;7.172;2022-08-03T09:36:47;27.30;43.50
12849;DHT22;6493;50.928;7.172;2022-08-03T09:42:06;27.40;43.70
12849;DHT22;6493;50.928;7.172;2022-08-03T09:47:11;27.60;42.70
12849;DHT22;6493;50.928;7.172;2022-08-03T09:52:17;27.70;43.30
12849;DHT22;6493;50.928;7.172;2022-08-03T09:57:41;27.90;43.30
12849;DHT22;6493;50.928;7.172;2022-08-03T10:02:48;28.10;43.20
12849;DHT22;6493;50.928;7.172;2022-08-03T10:07:53;28.30;43.10
12849;DHT22;6493;50.928;7.172;2022-08-03T10:12:59;28.50;43.10
12849;DHT22;6493;50.928;7.172;2022-08-03T10:18:03;28.60;42.50
12849;DHT22;6493;50.928;7.172;2022-08-03T10:23:08;28.70;42.10
12849;DHT22;6493;50.928;7.172;2022-08-03T10:28:17;28.80;42.00
12849;DHT22;6493;50.928;7.172;2022-08-03T10:33:23;28.90;41.40
12849;DHT22;6493;50.928;7.172;2022-08-03T10:38:51;29.00;41.40
12849;DHT22;6493;50.928;7.172;2022-08-03T10:44:01;29.10;41.50
12849;DHT22;6493;50.928;7.172;2022-08-03T10:49:06;29.20;41.10
12849;DHT22;6493;50.928;7.172;2022-08-03T10:54:37;29.30;41.20
12849;DHT22;6493;50.928;7.172;2022-08-03T11:00:10;29.50;40.40
12849;DHT22;6493;50.928;7.172;2022-08-03T11:05:25;29.60;40.50
12849;DHT22;6493;50.928;7.172;2022-08-03T11:10:30;29.70;39.00
12849;DHT22;6493;50.928;7.172;2022-08-03T11:15:36;29.70;39.90
12849;DHT22;6493;50.928;7.172;2022-08-03T11:20:47;29.80;39.20
12849;DHT22;6493;50.928;7.172;2022-08-03T11:26:10;29.90;39.30
12849;DHT22;6493;50.928;7.172;2022-08-03T11:31:46;29.90;38.80
12849;DHT22;6493;50.928;7.172;2022-08-03T11:37:21;30.00;38.90
12849;DHT22;6493;50.928;7.172;2022-08-03T11:42:43;30.10;38.50
12849;DHT22;6493;50.928;7.172;2022-08-03T11:47:53;30.20;38.70
12849;DHT22;6493;50.928;7.172;2022-08-03T11:52:57;30.30;38.20
12849;DHT22;6493;50.928;7.172;2022-08-03T11:58:01;30.40;38.10
12849;DHT22;6493;50.928;7.172;2022-08-03T12:03:31;30.40;38.10
12849;DHT22;6493;50.928;7.172;2022-08-03T12:08:35;30.40;37.50
12849;DHT22;6493;50.928;7.172;2022-08-03T12:13:42;30.40;38.20
12849;DHT22;6493;50.928;7.172;2022-08-03T12:19:12;30.50;38.20
12849;DHT22;6493;50.928;7.172;2022-08-03T12:24:17;30.60;37.40
12849;DHT22;6493;50.928;7.172;2022-08-03T12:29:21;30.60;37.40
12849;DHT22;6493;50.928;7.172;2022-08-03T12:34:46;30.70;37.30
12849;DHT22;6493;50.928;7.172;2022-08-03T12:39:51;30.70;36.80
12849;DHT22;6493;50.928;7.172;2022-08-03T12:45:21;30.80;37.40
12849;DHT22;6493;50.928;7.172;2022-08-03T12:50:29;30.90;36.80
12849;DHT22;6493;50.928;7.172;2022-08-03T12:55:33;31.10;36.50
12849;DHT22;6493;50.928;7.172;2022-08-03T13:00:57;31.10;36.60
12849;DHT22;6493;50.928;7.172;2022-08-03T13:06:10;31.10;35.40
12849;DHT22;6493;50.928;7.172;2022-08-03T13:11:21;31.10;36.00
12849;DHT22;6493;50.928;7.172;2022-08-03T13:16:45;31.10;36.10
12849;DHT22;6493;50.928;7.172;2022-08-03T13:21:53;31.30;36.50
12849;DHT22;6493;50.928;7.172;2022-08-03T13:27:05;31.40;35.50
12849;DHT22;6493;50.928;7.172;2022-08-03T13:32:29;31.40;35.30
12849;DHT22;6493;50.928;7.172;2022-08-03T13:37:34;31.40;35.50
12849;DHT22;6493;50.928;7.172;2022-08-03T13:42:38;31.40;35.30
12849;DHT22;6493;50.928;7.172;2022-08-03T13:47:42;31.40;35.10
12849;DHT22;6493;50.928;7.172;2022-08-03T13:52:47;31.40;35.30
12849;DHT22;6493;50.928;7.172;2022-08-03T13:57:50;31.40;35.00
12849;DHT22;6493;50.928;7.172;2022-08-03T14:03:08;31.40;34.90
12849;DHT22;6493;50.928;7.172;2022-08-03T14:08:17;31.40;34.80
12849;DHT22;6493;50.928;7.172;2022-08-03T14:13:20;31.30;34.80
12849;DHT22;6493;50.928;7.172;2022-08-03T14:18:24;31.20;34.90
12849;DHT22;6493;50.928;7.172;2022-08-03T14:23:32;31.20;35.10
12849;DHT22;6493;50.928;7.172;2022-08-03T14:28:36;31.20;34.80
12849;DHT22;6493;50.928;7.172;2022-08-03T14:33:40;31.20;35.00
12849;DHT22;6493;50.928;7.172;2022-08-03T14:38:45;31.20;34.80
12849;DHT22;6493;50.928;7.172;2022-08-03T14:43:49;31.20;34.40
12849;DHT22;6493;50.928;7.172;2022-08-03T14:49:03;31.10;34.60
12849;DHT22;6493;50.928;7.172;2022-08-03T14:54:28;31.10;34.70
12849;DHT22;6493;50.928;7.172;2022-08-03T14:59:33;31.20;34.80
12849;DHT22;6493;50.928;7.172;2022-08-03T15:04:56;31.20;34.90
12849;DHT22;6493;50.928;7.172;2022-08-03T15:10:01;31.20;34.70
12849;DHT22;6493;50.928;7.172;2022-08-03T15:15:06;31.20;34.60
12849;DHT22;6493;50.928;7.172;2022-08-03T15:20:10;31.30;34.60
12849;DHT22;6493;50.928;7.172;2022-08-03T15:25:35;31.30;34.60
12849;DHT22;6493;50.928;7.172;2022-08-03T15:30:59;31.20;34.20
12849;DHT22;6493;50.928;7.172;2022-08-03T15:36:03;31.20;34.10
12849;DHT22;6493;50.928;7.172;2022-08-03T15:41:08;31.10;34.10
12849;DHT22;6493;50.928;7.172;2022-08-03T15:46:15;31.00;34.10
12849;DHT22;6493;50.928;7.172;2022-08-03T15:51:31;31.00;34.10
12849;DHT22;6493;50.928;7.172;2022-08-03T15:56:36;31.00;34.20
12849;DHT22;6493;50.928;7.172;2022-08-03T16:01:40;30.90;34.10
12849;DHT22;6493;50.928;7.172;2022-08-03T16:06:44;30.90;34.10
12849;DHT22;6493;50.928;7.172;2022-08-03T16:11:49;30.80;34.00
12849;DHT22;6493;50.928;7.172;2022-08-03T16:16:54;30.80;34.00
12849;DHT22;6493;50.928;7.172;2022-08-03T16:21:57;30.70;34.00
12849;DHT22;6493;50.928;7.172;2022-08-03T16:27:03;30.60;34.00
12849;DHT22;6493;50.928;7.172;2022-08-03T16:32:14;30.50;34.00
12849;DHT22;6493;50.928;7.172;2022-08-03T16:37:18;30.40;33.90
12849;DHT22;6493;50.928;7.172;2022-08-03T16:42:41;30.30;33.90
12849;DHT22;6493;50.928;7.172;2022-08-03T16:47:45;30.10;33.90
12849;DHT22;6493;50.928;7.172;2022-08-03T16:53:04;30.00;34.10
12849;DHT22;6493;50.928;7.172;2022-08-03T16:58:12;29.90;34.10
12849;DHT22;6493;50.928;7.172;2022-08-03T17:03:19;29.80;34.30
12849;DHT22;6493;50.928;7.172;2022-08-03T17:08:25;29.80;34.40
12849;DHT22;6493;50.928;7.172;2022-08-03T17:13:30;29.70;34.30
12849;DHT22;6493;50.928;7.172;2022-08-03T17:18:46;29.70;34.20
12849;DHT22;6493;50.928;7.172;2022-08-03T17:23:56;29.60;34.20
12849;DHT22;6493;50.928;7.172;2022-08-03T17:29:04;29.50;34.20
12849;DHT22;6493;50.928;7.172;2022-08-03T17:34:14;29.50;34.20
12849;DHT22;6493;50.928;7.172;2022-08-03T17:39:18;29.40;34.30
12849;DHT22;6493;50.928;7.172;2022-08-03T17:44:44;29.40;34.40
12849;DHT22;6493;50.928;7.172;2022-08-03T17:49:48;29.30;34.30
12849;DHT22;6493;50.928;7.172;2022-08-03T17:54:58;29.20;34.40
12849;DHT22;6493;50.928;7.172;2022-08-03T18:00:26;29.10;34.40
12849;DHT22;6493;50.928;7.172;2022-08-03T18:05:54;29.10;34.50
12849;DHT22;6493;50.928;7.172;2022-08-03T18:11:21;29.00;34.50
12849;DHT22;6493;50.928;7.172;2022-08-03T18:16:41;28.90;34.50
12849;DHT22;6493;50.928;7.172;2022-08-03T18:21:48;28.80;34.50
12849;DHT22;6493;50.928;7.172;2022-08-03T18:27:06;28.70;34.60
12849;DHT22;6493;50.928;7.172;2022-08-03T18:32:13;28.50;34.60
12849;DHT22;6493;50.928;7.172;2022-08-03T18:37:38;28.50;34.70
12849;DHT22;6493;50.928;7.172;2022-08-03T18:42:53;28.40;34.70
12849;DHT22;6493;50.928;7.172;2022-08-03T18:48:04;28.30;34.90
12849;DHT22;6493;50.928;7.172;2022-08-03T18:53:15;28.10;34.90
12849;DHT22;6493;50.928;7.172;2022-08-03T18:58:26;28.00;34.90
12849;DHT22;6493;50.928;7.172;2022-08-03T19:03:34;27.90;35.10
12849;DHT22;6493;50.928;7.172;2022-08-03T19:08:48;27.80;35.20
12849;DHT22;6493;50.928;7.172;2022-08-03T19:13:55;27.60;35.20
12849;DHT22;6493;50.928;7.172;2022-08-03T19:19:02;27.50;35.30
12849;DHT22;6493;50.928;7.172;2022-08-03T19:24:08;27.40;35.40
12849;DHT22;6493;50.928;7.172;2022-08-03T19:29:12;27.30;35.50
12849;DHT22;6493;50.928;7.172;2022-08-03T19:34:18;27.20;35.60
12849;DHT22;6493;50.928;7.172;2022-08-03T19:39:25;27.00;35.50
12849;DHT22;6493;50.928;7.172;2022-08-03T19:44:37;26.90;35.60
12849;DHT22;6493;50.928;7.172;2022-08-03T19:49:45;26.90;35.80
12849;DHT22;6493;50.928;7.172;2022-08-03T19:55:10;26.80;35.80
12849;DHT22;6493;50.928;7.172;2022-08-03T20:00:16;26.70;35.80
12849;DHT22;6493;50.928;7.172;2022-08-03T20:05:29;26.60;35.90
12849;DHT22;6493;50.928;7.172;2022-08-03T20:10:53;26.60;36.60
12849;DHT22;6493;50.928;7.172;2022-08-03T20:15:56;26.40;35.90
12849;DHT22;6493;50.928;7.172;2022-08-03T20:21:05;26.40;36.00
12849;DHT22;6493;50.928;7.172;2022-08-03T20:26:17;26.40;36.20
12849;DHT22;6493;50.928;7.172;2022-08-03T20:31:24;26.30;36.30
12849;DHT22;6493;50.928;7.172;2022-08-03T20:36:39;26.20;36.30
12849;DHT22;6493;50.928;7.172;2022-08-03T20:41:43;26.10;36.50
12849;DHT22;6493;50.928;7.172;2022-08-03T20:46:46;25.90;36.50
12849;DHT22;6493;50.928;7.172;2022-08-03T20:51:59;25.70;36.70
12849;DHT22;6493;50.928;7.172;2022-08-03T20:57:05;25.50;36.90
12849;DHT22;6493;50.928;7.172;2022-08-03T21:02:11;25.30;37.00
12849;DHT22;6493;50.928;7.172;2022-08-03T21:07:23;25.10;37.10
12849;DHT22;6493;50.928;7.172;2022-08-03T21:12:52;25.00;37.40
12849;DHT22;6493;50.928;7.172;2022-08-03T21:18:17;24.80;37.60
12849;DHT22;6493;50.928;7.172;2022-08-03T21:23:24;24.70;37.70
12849;DHT22;6493;50.928;7.172;2022-08-03T21:28:41;24.50;37.90
12849;DHT22;6493;50.928;7.172;2022-08-03T21:33:47;24.40;38.10
12849;DHT22;6493;50.928;7.172;2022-08-03T21:38:53;24.30;38.30
12849;DHT22;6493;50.928;7.172;2022-08-03T21:44:00;24.20;38.40
12849;DHT22;6493;50.928;7.172;2022-08-03T21:49:05;24.00;38.40
12849;DHT22;6493;50.928;7.172;2022-08-03T21:54:34;24.00;38.80
12849;DHT22;6493;50.928;7.172;2022-08-03T21:59:39;23.80;39.00
12849;DHT22;6493;50.928;7.172;2022-08-03T22:04:46;23.70;39.10
12849;DHT22;6493;50.928;7.172;2022-08-03T22:10:00;23.60;39.20
12849;DHT22;6493;50.928;7.172;2022-08-03T22:15:07;23.50;39.30
12849;DHT22;6493;50.928;7.172;2022-08-03T22:20:12;23.40;39.60
12849;DHT22;6493;50.928;7.172;2022-08-03T22:25:20;23.20;39.80
12849;DHT22;6493;50.928;7.172;2022-08-03T22:30:25;23.10;40.10
12849;DHT22;6493;50.928;7.172;2022-08-03T22:35:31;22.90;40.20
12849;DHT22;6493;50.928;7.172;2022-08-03T22:40:51;22.80;41.20
12849;DHT22;6493;50.928;7.172;2022-08-03T22:45:55;22.60;41.00
12849;DHT22;6493;50.928;7.172;2022-08-03T22:51:15;22.40;40.90
12849;DHT22;6493;50.928;7.172;2022-08-03T22:56:20;22.30;41.50
12849;DHT22;6493;50.928;7.172;2022-08-03T23:01:25;22.20;41.50
12849;DHT22;6493;50.928;7.172;2022-08-03T23:06:32;22.10;41.70
12849;DHT22;6493;50.928;7.172;2022-08-03T23:11:41;22.00;41.80
12849;DHT22;6493;50.928;7.172;2022-08-03T23:16:49;21.90;42.00
12849;DHT22;6493;50.928;7.172;2022-08-03T23:21:55;21.80;42.20
12849;DHT22;6493;50.928;7.172;2022-08-03T23:27:06;21.80;42.10
12849;DHT22;6493;50.928;7.172;2022-08-03T23:32:12;21.70;42.20
12849;DHT22;6493;50.928;7.172;2022-08-03T23:37:16;21.70;42.50
12849;DHT22;6493;50.928;7.172;2022-08-03T23:42:22;21.60;42.40
12849;DHT22;6493;50.928;7.172;2022-08-03T23:47:26;21.60;42.80
12849;DHT22;6493;50.928;7.172;2022-08-03T23:52:56;21.60;42.80
12849;DHT22;6493;50.928;7.172;2022-08-03T23:58:08;21.50;43.20
